Time;durP1;ratioP1;P1;durP2;ratioP2;P2;SDS_P1;SDS_P2;PMS_P1;PMS_P2;Temp;Humidity;BMP_temperature;BMP_pressure;BME280_temperature;BME280_humidity;BME280_pressure;Samples;Min_cycle;Max_cycle;Signal;HPM_P1;HPM_P2
2021/04/08 00:05:23;;;;;;;;;;;;;;;0.19;100.00;98782.82;4084404;86;20289;-83
2021/04/08 00:11:25;;;;;;;;;;;;;;;0.13;100.00;98785.65;4065333;86;20211;-84
2021/04/08 00:17:27;;;;;;;;;;;;;;;0.12;100.00;98784.00;4058048;86;20187;-83
2021/04/08 00:23:29;;;;;;;;;;;;;;;0.18;100.00;98782.98;4069657;86;20184;-83
2021/04/08 00:29:30;;;;;;;;;;;;;;;0.22;100.00;98781.66;4154235;84;20503;-83
2021/04/08 00:35:32;;;;;;;;;;;;;;;0.30;100.00;98784.77;4120796;86;20741;-83
2021/04/08 00:41:35;;;;;;;;;;;;;;;0.35;100.00;98781.10;4109461;85;20256;-82
2021/04/08 00:47:37;;;;;;;;;;;;;;;0.24;100.00;98779.16;4144531;84;20182;-83
2021/04/08 00:53:40;;;;;;;;;;;;;;;0.18;100.00;98778.53;4133593;85;20196;-83
2021/04/08 00:59:42;;;;;;;;;;;;;;;0.09;100.00;98779.03;4103382;85;20378;-84
2021/04/08 01:05:44;;;;;;;;;;;;;;;-0.04;100.00;98784.87;4117020;85;20184;-82
2021/04/08 01:11:47;;;;;;;;;;;;;;;-0.09;100.00;98789.81;4103803;85;20239;-81
2021/04/08 01:17:55;;;;;;;;;;;;;;;-0.01;100.00;98792.94;4128436;85;20195;-82
2021/04/08 01:24:20;;;;;;;;;;;;;;;0.09;100.00;98796.73;4108172;85;20276;-83
2021/04/08 01:30:43;;;;;;;;;;;;;;;-0.18;100.00;98793.47;4079617;85;20227;-84
2021/04/08 01:36:47;;;;;;;;;;;;;;;-0.18;100.00;98800.91;4118307;85;20190;-84
2021/04/08 01:42:50;;;;;;;;;;;;;;;-0.32;100.00;98801.56;4115280;85;20286;-84
2021/04/08 01:48:54;;;;;;;;;;;;;;;-0.30;100.00;98800.93;4099851;85;20257;-83
2021/04/08 01:54:59;;;;;;;;;;;;;;;-0.39;100.00;98796.13;4097095;84;20266;-83
2021/04/08 02:01:01;;;;;;;;;;;;;;;-0.54;100.00;98793.32;4062729;86;20217;-82
2021/04/08 02:07:03;;;;;;;;;;;;;;;-0.53;100.00;98790.20;4137479;85;20201;-84
2021/04/08 02:13:08;;;;;;;;;;;;;;;-0.67;100.00;98786.40;4128762;85;20788;-82
2021/04/08 02:19:10;;;;;;;;;;;;;;;-0.45;100.00;98783.60;4114855;85;20477;-83
2021/04/08 02:25:14;;;;;;;;;;;;;;;-0.37;100.00;98786.22;4115122;85;20240;-83
2021/04/08 02:31:17;;;;;;;;;;;;;;;-0.36;100.00;98779.97;4157577;84;20300;-83
2021/04/08 02:37:19;;;;;;;;;;;;;;;-0.39;100.00;98778.14;4111083;86;20170;-83
2021/04/08 02:43:21;;;;;;;;;;;;;;;-0.31;100.00;98778.95;4088561;86;20204;-83
2021/04/08 02:49:23;;;;;;;;;;;;;;;-0.26;100.00;98784.22;4095305;86;20627;-83
2021/04/08 02:55:28;;;;;;;;;;;;;;;-0.29;100.00;98790.17;4090161;85;20287;-83
2021/04/08 03:01:30;;;;;;;;;;;;;;;-0.38;100.00;98794.33;4066371;86;20196;-85
2021/04/08 03:07:45;;;;;;;;;;;;;;;-0.26;100.00;98804.87;4080199;86;20231;-84
2021/04/08 03:13:47;;;;;;;;;;;;;;;-0.24;100.00;98805.53;4045639;88;20180;-82
2021/04/08 03:19:53;;;;;;;;;;;;;;;-0.31;100.00;98804.05;4064724;86;20174;-83
2021/04/08 03:25:55;;;;;;;;;;;;;;;-0.26;100.00;98804.87;4115448;86;20297;-83
2021/04/08 03:31:57;;;;;;;;;;;;;;;-0.26;100.00;98798.27;4116951;86;20218;-83
2021/04/08 03:38:00;;;;;;;;;;;;;;;-0.13;100.00;98803.53;4148530;85;20210;-82
2021/04/08 03:44:02;;;;;;;;;;;;;;;0.03;100.00;98810.13;4087160;87;20246;-80
2021/04/08 03:50:06;;;;;;;;;;;;;;;0.17;100.00;98807.77;4106241;86;20175;-82
2021/04/08 03:56:08;;;;;;;;;;;;;;;0.43;100.00;98813.33;4058392;87;20471;-81
2021/04/08 04:02:14;;;;;;;;;;;;;;;0.37;100.00;98814.84;4146774;86;20214;-82
2021/04/08 04:08:16;;;;;;;;;;;;;;;0.71;100.00;98819.00;4068741;86;20372;-81
2021/04/08 04:14:23;;;;;;;;;;;;;;;0.99;100.00;98822.98;4068945;86;20189;-81
2021/04/08 04:20:25;;;;;;;;;;;;;;;1.18;100.00;98828.33;4051144;86;20526;-80
2021/04/08 04:26:27;;;;;;;;;;;;;;;1.25;100.00;98822.66;4068744;86;20178;-82
2021/04/08 04:32:29;;;;;;;;;;;;;;;1.38;100.00;98824.22;4068847;86;20278;-82
2021/04/08 04:38:31;;;;;;;;;;;;;;;1.50;100.00;98836.56;4087259;86;20479;-82
2021/04/08 04:44:32;;;;;;;;;;;;;;;1.55;100.00;98834.71;4087490;86;20246;-82
2021/04/08 04:50:34;;;;;;;;;;;;;;;1.65;100.00;98832.64;4079052;86;20245;-84
2021/04/08 04:56:36;;;;;;;;;;;;;;;1.70;100.00;98844.03;4052762;86;20205;-82
2021/04/08 05:02:38;;;;;;;;;;;;;;;1.91;100.00;98855.27;4069960;86;20189;-83
2021/04/08 05:08:40;;;;;;;;;;;;;;;2.10;100.00;98861.08;4070334;87;20235;-84
2021/04/08 05:14:42;;;;;;;;;;;;;;;2.13;100.00;98863.88;4075073;86;20320;-85
2021/04/08 05:20:44;;;;;;;;;;;;;;;2.11;100.00;98875.18;4070577;86;20651;-85
2021/04/08 05:26:46;;;;;;;;;;;;;;;2.23;100.00;98879.84;4075026;86;20198;-85
2021/04/08 05:32:48;;;;;;;;;;;;;;;2.21;100.00;98895.64;4093632;86;20325;-84
2021/04/08 05:38:50;;;;;;;;;;;;;;;2.25;100.00;98892.12;4099992;86;20281;-85
2021/04/08 05:44:52;;;;;;;;;;;;;;;2.44;100.00;98904.84;4102820;86;20190;-84
2021/04/08 05:50:53;;;;;;;;;;;;;;;2.58;100.00;98900.56;4103156;86;20282;-84
2021/04/08 05:56:55;;;;;;;;;;;;;;;2.55;100.00;98910.72;4071177;84;20232;-84
2021/04/08 06:02:57;;;;;;;;;;;;;;;2.51;100.00;98916.39;4078957;86;20302;-85
2021/04/08 06:08:59;;;;;;;;;;;;;;;2.45;100.00;98918.95;4079365;87;20229;-85
2021/04/08 06:15:01;;;;;;;;;;;;;;;2.51;100.00;98935.49;4096613;86;20223;-84
2021/04/08 06:21:04;;;;;;;;;;;;;;;2.62;100.00;98946.98;4090300;86;20186;-84
2021/04/08 06:27:07;;;;;;;;;;;;;;;2.63;100.00;98953.11;4098996;86;20298;-84
2021/04/08 06:33:08;;;;;;;;;;;;;;;2.55;100.00;98961.98;4082314;87;20192;-84
2021/04/08 06:39:10;;;;;;;;;;;;;;;2.79;100.00;98972.86;4105745;85;20194;-85
2021/04/08 06:45:14;;;;;;;;;;;;;;;2.82;100.00;98977.48;4093570;86;20245;-85
2021/04/08 06:51:19;;;;;;;;;;;;;;;2.98;100.00;98987.94;4072984;86;20257;-84
2021/04/08 06:57:20;;;;;;;;;;;;;;;3.25;100.00;98999.44;4077982;86;20285;-85
2021/04/08 07:03:22;;;;;;;;;;;;;;;3.37;100.00;99003.76;4103627;86;20258;-85
2021/04/08 07:09:24;;;;;;;;;;;;;;;3.24;100.00;99009.75;4100096;87;20191;-85
2021/04/08 07:15:27;;;;;;;;;;;;;;;4.02;100.00;99010.55;4106145;86;20178;-85
2021/04/08 07:21:30;;;;;;;;;;;;;;;3.71;100.00;99027.09;4102059;87;20571;-85
2021/04/08 07:27:33;;;;;;;;;;;;;;;3.97;100.00;99018.27;4105235;86;20266;-85
2021/04/08 07:33:40;;;;;;;;;;;;;;;4.24;100.00;99023.34;4101744;86;20234;-86
2021/04/08 07:39:45;;;;;;;;;;;;;;;4.64;100.00;99045.52;4103059;86;20348;-88
2021/04/08 07:45:47;;;;;;;;;;;;;;;4.65;100.00;99069.81;4098499;87;20292;-84
2021/04/08 07:51:49;;;;;;;;;;;;;;;4.71;100.00;99073.55;4101217;86;20463;-85
2021/04/08 07:58:01;;;;;;;;;;;;;;;4.50;100.00;99082.36;4104016;86;20285;-87
2021/04/08 08:04:03;;;;;;;;;;;;;;;4.39;100.00;99102.34;4106007;85;20213;-84
2021/04/08 08:10:06;;;;;;;;;;;;;;;4.36;100.00;99115.50;4121171;86;20558;-83
2021/04/08 08:16:12;;;;;;;;;;;;;;;4.36;100.00;99118.66;4097470;86;20199;-83
2021/04/08 08:22:20;;;;;;;;;;;;;;;4.76;100.00;99120.39;4123720;86;20294;-86
2021/04/08 08:28:25;;;;;;;;;;;;;;;4.82;100.00;99150.27;4077790;85;20272;-83
2021/04/08 08:34:33;;;;;;;;;;;;;;;4.37;100.00;99161.57;4099869;85;20462;-85
2021/04/08 08:40:36;;;;;;;;;;;;;;;4.09;100.00;99172.41;4107312;86;20233;-83
2021/04/08 08:46:51;;;;;;;;;;;;;;;4.11;100.00;99190.34;4063496;86;20657;-87
2021/04/08 08:52:54;;;;;;;;;;;;;;;3.96;100.00;99200.18;4098534;85;20192;-84
2021/04/08 08:58:58;;;;;;;;;;;;;;;4.17;100.00;99198.12;4075932;86;20274;-87
2021/04/08 09:05:00;;;;;;;;;;;;;;;4.72;100.00;99193.72;4095152;85;20249;-85
2021/04/08 09:11:03;;;;;;;;;;;;;;;5.24;100.00;99182.39;4104862;85;20584;-84
2021/04/08 09:17:05;;;;;;;;;;;;;;;5.36;100.00;99191.20;4077168;85;20265;-83
2021/04/08 09:23:12;;;;;;;;;;;;;;;5.86;100.00;99190.62;4096464;85;20470;-84
2021/04/08 09:29:18;;;;;;;;;;;;;;;6.15;100.00;99193.28;4083577;86;20286;-83
2021/04/08 09:35:22;;;;;;;;;;;;;;;6.26;100.00;99185.20;4089004;85;20255;-83
2021/04/08 09:41:55;;;;;;;;;;;;;;;5.72;89.29;99198.23;4073247;86;20301;-86
2021/04/08 09:48:15;;;;;;;;;;;;;;;5.72;100.00;99187.05;4087175;85;20337;-85
2021/04/08 09:54:19;;;;;;;;;;;;;;;6.09;80.03;99211.41;4099543;85;20368;-84
2021/04/08 10:00:22;;;;;;;;;;;;;;;5.48;86.89;99232.34;4077656;87;20226;-84
2021/04/08 10:06:24;;;;;;;;;;;;;;;5.63;72.99;99237.59;4155060;84;20187;-83
2021/04/08 10:12:33;;;;;;;;;;;;;;;5.93;65.35;99248.55;4110230;85;20611;-84
2021/04/08 10:18:37;;;;;;;;;;;;;;;5.60;63.50;99247.29;4141722;85;20293;-82
2021/04/08 10:24:44;;;;;;;;;;;;;;;6.19;59.05;99260.43;4148370;85;20486;-81
2021/04/08 10:30:46;;;;;;;;;;;;;;;5.91;62.81;99246.60;4139189;85;20242;-84
2021/04/08 10:36:57;;;;;;;;;;;;;;;6.77;60.20;99242.73;4147634;86;20282;-85
2021/04/08 10:43:15;;;;;;;;;;;;;;;6.49;60.44;99255.67;4105945;85;20235;-83
2021/04/08 10:49:19;;;;;;;;;;;;;;;5.77;71.44;99271.03;4163838;84;20289;-84
2021/04/08 10:55:25;;;;;;;;;;;;;;;4.62;100.00;99309.86;4064398;87;20290;-82
2021/04/08 11:01:30;;;;;;;;;;;;;;;4.59;100.00;99305.75;4077240;86;20194;-84
2021/04/08 11:07:38;;;;;;;;;;;;;;;5.64;98.43;99287.75;4074220;86;20684;-83
2021/04/08 11:13:40;;;;;;;;;;;;;;;6.53;88.57;99280.14;4075155;86;20387;-86
2021/04/08 11:19:43;;;;;;;;;;;;;;;6.61;79.07;99277.30;4095986;86;20186;-86
2021/04/08 11:26:06;;;;;;;;;;;;;;;6.58;74.65;99279.55;4080325;86;20519;-85
2021/04/08 11:32:11;;;;;;;;;;;;;;;7.16;68.30;99309.02;4097117;86;20191;-84
2021/04/08 11:38:16;;;;;;;;;;;;;;;7.57;64.67;99295.22;4083360;86;20299;-84
2021/04/08 11:44:24;;;;;;;;;;;;;;;6.94;79.10;99318.52;4076501;86;20246;-84
2021/04/08 11:50:32;;;;;;;;;;;;;;;6.46;100.00;99348.72;4082873;86;20277;-85
2021/04/08 11:56:35;;;;;;;;;;;;;;;5.79;100.00;99354.36;4070842;86;20365;-85
2021/04/08 12:02:40;;;;;;;;;;;;;;;5.62;100.00;99365.81;4124809;84;21308;-85
2021/04/08 12:08:47;;;;;;;;;;;;;;;5.81;100.00;99350.49;4063873;87;20191;-84
2021/04/08 12:14:54;;;;;;;;;;;;;;;6.31;100.00;99336.81;4066691;86;20257;-90
2021/04/08 12:21:01;;;;;;;;;;;;;;;6.98;100.00;99336.64;4045119;86;20181;-86
2021/04/08 12:27:03;;;;;;;;;;;;;;;7.70;100.00;99330.50;4107765;86;20555;-87
2021/04/08 12:33:05;;;;;;;;;;;;;;;7.64;100.00;99329.47;4077094;87;20293;-86
2021/04/08 12:39:07;;;;;;;;;;;;;;;7.08;93.48;99362.17;4065314;86;20590;-87
2021/04/08 12:45:10;;;;;;;;;;;;;;;5.83;100.00;99368.47;4099116;85;20555;-87
2021/04/08 12:51:12;;;;;;;;;;;;;;;6.46;100.00;99370.09;4151854;84;20189;-88
2021/04/08 12:57:14;;;;;;;;;;;;;;;7.02;99.27;99365.14;4147226;84;20268;-84
2021/04/08 13:03:16;;;;;;;;;;;;;;;6.88;100.00;99363.45;4089606;85;20224;-86
2021/04/08 13:09:18;;;;;;;;;;;;;;;6.51;90.89;99377.02;4107910;85;20639;-86
2021/04/08 13:15:20;;;;;;;;;;;;;;;6.25;72.23;99397.17;4115045;85;20227;-86
2021/04/08 13:21:22;;;;;;;;;;;;;;;5.94;84.04;99396.50;4124477;85;20282;-86
2021/04/08 13:27:26;;;;;;;;;;;;;;;6.31;100.00;99378.20;4111447;85;20280;-88
2021/04/08 13:33:28;;;;;;;;;;;;;;;6.78;100.00;99369.98;4113580;85;20193;-85
2021/04/08 13:39:30;;;;;;;;;;;;;;;6.87;98.88;99385.33;4106918;85;20177;-86
2021/04/08 13:45:32;;;;;;;;;;;;;;;7.05;100.00;99396.00;4128416;85;20454;-85
2021/04/08 13:51:34;;;;;;;;;;;;;;;7.10;100.00;99397.55;4103515;86;20580;-86
2021/04/08 13:57:36;;;;;;;;;;;;;;;7.61;100.00;99395.45;4165218;84;20358;-86
2021/04/08 14:03:39;;;;;;;;;;;;;;;7.92;99.98;99408.27;4058344;86;20178;-86
2021/04/08 14:09:41;;;;;;;;;;;;;;;6.67;100.00;99470.21;4048862;86;20253;-84
2021/04/08 14:15:43;;;;;;;;;;;;;;;12.80;80.87;99505.32;4064737;86;20233;-84
2021/04/08 14:21:45;;;;;;;;;;;;;;;12.09;84.47;99513.28;4144393;84;20348;-85
2021/04/08 14:27:48;;;;;;;;;;;;;;;14.35;64.72;99491.37;4138229;84;20280;-86
2021/04/08 14:33:56;;;;;;;;;;;;;;;14.15;64.37;99484.26;4144333;85;20279;-87
2021/04/08 14:40:11;;;;;;;;;;;;;;;14.31;64.15;99478.06;4144254;84;20186;-87
2021/04/08 14:46:25;;;;;;;;;;;;;;;14.21;64.84;99484.64;4157917;84;20221;-85
2021/04/08 14:52:27;;;;;;;;;;;;;;;13.84;60.02;99499.92;4055013;86;20478;-87
2021/04/08 14:58:29;;;;;;;;;;;;;;;13.94;62.52;99499.59;4066188;87;20263;-85
2021/04/08 15:04:30;;;;;;;;;;;;;;;14.54;59.16;99500.60;4158896;84;20377;-84
2021/04/08 15:10:34;;;;;;;;;;;;;;;13.87;61.94;99508.92;4090320;86;20212;-83
2021/04/08 15:16:38;;;;;;;;;;;;;;;13.85;61.61;99515.91;4090833;86;20335;-84
2021/04/08 15:22:59;;;;;;;;;;;;;;;14.30;60.61;99513.45;4049976;86;20196;-82
2021/04/08 15:37:33;;;;;;;;;;;;;;;14.06;60.51;99514.94;3822419;91;20359;-86
2021/04/08 15:44:27;;;;;;;;;;;;;;;13.38;62.25;99511.43;3695837;91;20513;-84
2021/04/08 15:51:32;;;;;;;;;;;;;;;14.16;57.38;99525.10;4185909;83;20614;-84
2021/04/08 15:57:54;;;;;;;;;;;;;;;14.04;60.14;99540.84;4093279;85;20348;-83
2021/04/08 16:04:00;;;;;;;;;;;;;;;13.25;62.76;99557.89;4126339;83;20197;-86
2021/04/08 16:10:21;;;;;;;;;;;;;;;13.67;60.36;99538.53;4136503;85;20676;-85
2021/04/08 16:16:38;;;;;;;;;;;;;;;13.19;64.37;99564.77;4144113;85;20243;-85
2021/04/08 16:23:01;;;;;;;;;;;;;;;13.41;62.87;99597.92;4621773;75;20260;-86
2021/04/08 16:29:04;;;;;;;;;;;;;;;12.61;68.74;99582.00;4605520;77;20159;-84
2021/04/08 16:35:06;;;;;;;;;;;;;;;14.17;61.95;99587.06;4608812;77;20175;-84
2021/04/08 16:41:08;;;;;;;;;;;;;;;14.40;60.27;99593.97;4595276;77;20215;-84
2021/04/08 16:47:11;;;;;;;;;;;;;;;14.07;61.44;99604.44;4575270;76;20176;-87
2021/04/08 16:53:29;;;;;;;;;;;;;;;13.85;61.37;99611.02;4560436;77;20197;-88
2021/04/08 16:59:31;;;;;;;;;;;;;;;12.75;66.69;99611.76;4615769;77;20246;-88
2021/04/08 17:05:34;;;;;;;;;;;;;;;13.13;62.89;99615.13;4606920;77;20226;-88
2021/04/08 17:11:37;;;;;;;;;;;;;;;13.60;59.80;99614.31;4583488;77;20167;-87
2021/04/08 17:17:41;;;;;;;;;;;;;;;13.28;61.79;99624.11;4555124;77;20166;-88
2021/04/08 17:23:44;;;;;;;;;;;;;;;13.57;59.46;99628.82;4613111;77;20226;-84
2021/04/08 17:29:46;;;;;;;;;;;;;;;13.33;59.51;99639.06;4622002;76;20470;-85
2021/04/08 17:35:54;;;;;;;;;;;;;;;12.85;61.62;99647.64;4603116;77;20541;-84
2021/04/08 17:42:12;;;;;;;;;;;;;;;13.32;59.32;99652.80;4602118;77;20182;-84
2021/04/08 17:48:37;;;;;;;;;;;;;;;12.61;63.12;99670.51;4608385;76;20179;-87
2021/04/08 17:54:39;;;;;;;;;;;;;;;13.07;59.39;99678.13;4596233;76;20183;-84
2021/04/08 18:00:55;;;;;;;;;;;;;;;13.59;57.72;99684.27;4614581;77;20564;-85
2021/04/08 18:06:57;;;;;;;;;;;;;;;13.07;58.13;99695.67;4590979;77;20182;-87
2021/04/08 18:13:00;;;;;;;;;;;;;;;13.34;57.45;99704.72;4609779;75;20240;-86
2021/04/08 18:19:03;;;;;;;;;;;;;;;12.58;60.04;99725.44;4590764;76;20176;-87
2021/04/08 18:25:06;;;;;;;;;;;;;;;13.01;59.96;99723.06;4523000;78;20218;-83
2021/04/08 18:31:08;;;;;;;;;;;;;;;13.15;59.60;99735.01;4511109;76;20166;-85
2021/04/08 18:37:17;;;;;;;;;;;;;;;13.33;60.03;99752.48;4519600;78;20282;-85
2021/04/08 18:43:19;;;;;;;;;;;;;;;13.18;59.31;99748.87;4481982;78;20206;-84
2021/04/08 18:49:34;;;;;;;;;;;;;;;13.81;56.39;99749.88;4486690;78;20255;-84
2021/04/08 18:56:20;;;;;;;;;;;;;;;13.03;60.20;99773.59;4493059;78;20213;-83
2021/04/08 19:02:22;;;;;;;;;;;;;;;12.92;59.00;99781.13;4513507;78;20349;-83
2021/04/08 19:08:25;;;;;;;;;;;;;;;12.22;62.16;99787.25;4518148;78;20604;-83
2021/04/08 19:14:27;;;;;;;;;;;;;;;12.30;60.19;99780.22;4500001;78;20174;-85
2021/04/08 19:20:29;;;;;;;;;;;;;;;12.32;60.17;99782.16;4518167;77;20236;-82
2021/04/08 19:26:31;;;;;;;;;;;;;;;11.96;60.24;99787.25;4516229;78;20256;-83
2021/04/08 19:32:34;;;;;;;;;;;;;;;12.61;57.45;99791.90;4523067;78;20178;-81
2021/04/08 19:38:36;;;;;;;;;;;;;;;11.82;61.76;99796.52;4512195;78;20286;-85
2021/04/08 19:44:38;;;;;;;;;;;;;;;12.31;59.18;99807.48;4497483;78;20533;-82
2021/04/08 19:50:40;;;;;;;;;;;;;;;12.23;59.33;99816.66;4505265;78;20490;-85
2021/04/08 19:56:42;;;;;;;;;;;;;;;12.32;59.15;99817.21;4506772;78;20460;-85
2021/04/08 20:02:46;;;;;;;;;;;;;;;12.45;58.94;99822.16;4520158;78;20563;-83
2021/04/08 20:08:47;;;;;;;;;;;;;;;12.32;59.42;99820.42;4513615;78;20177;-84
2021/04/08 20:14:52;;;;;;;;;;;;;;;12.28;59.47;99820.03;4508061;78;20182;-84
2021/04/08 20:20:54;;;;;;;;;;;;;;;12.44;58.41;99821.86;4513648;77;20474;-83
2021/04/08 20:26:56;;;;;;;;;;;;;;;12.84;55.90;99818.70;4519301;78;20167;-83
2021/04/08 20:33:00;;;;;;;;;;;;;;;12.45;57.29;99814.06;4527388;78;20185;-83
2021/04/08 20:39:04;;;;;;;;;;;;;;;12.60;56.77;99825.32;4504377;78;20185;-81
2021/04/08 20:45:06;;;;;;;;;;;;;;;12.57;56.96;99823.59;4530087;78;20257;-82
2021/04/08 20:51:10;;;;;;;;;;;;;;;12.73;55.89;99822.97;4507585;78;20169;-82
2021/04/08 20:57:13;;;;;;;;;;;;;;;12.79;55.58;99830.17;4491110;78;20287;-82
2021/04/08 21:03:16;;;;;;;;;;;;;;;12.60;56.90;99835.27;4528470;78;20200;-82
2021/04/08 21:09:17;;;;;;;;;;;;;;;12.58;56.70;99839.53;4513107;78;20281;-83
2021/04/08 21:15:20;;;;;;;;;;;;;;;12.91;54.69;99832.11;4502701;78;20169;-82
2021/04/08 21:21:23;;;;;;;;;;;;;;;12.69;56.00;99839.32;4547997;77;20255;-82
2021/04/08 21:27:24;;;;;;;;;;;;;;;12.68;55.96;99851.97;4624464;77;20656;-83
2021/04/08 21:33:26;;;;;;;;;;;;;;;13.14;54.38;99852.16;4608285;77;20211;-83
2021/04/08 21:39:29;;;;;;;;;;;;;;;12.26;58.20;99851.80;4621803;77;20258;-82
2021/04/08 21:45:31;;;;;;;;;;;;;;;12.44;56.33;99855.03;4609838;77;20258;-84
2021/04/08 21:51:34;;;;;;;;;;;;;;;11.82;58.32;99860.64;4622961;76;20325;-83
2021/04/08 21:57:36;;;;;;;;;;;;;;;11.70;58.92;99868.59;4619938;77;20195;-81
2021/04/08 22:03:39;;;;;;;;;;;;;;;12.29;55.35;99866.20;4640083;77;20166;-81
2021/04/08 22:09:42;;;;;;;;;;;;;;;11.90;55.95;99866.81;4599398;77;20172;-83
2021/04/08 22:15:44;;;;;;;;;;;;;;;12.24;52.93;99872.25;4605132;77;20190;-82
2021/04/08 22:21:46;;;;;;;;;;;;;;;11.05;58.98;99870.94;4618358;77;20258;-83
2021/04/08 22:27:48;;;;;;;;;;;;;;;10.72;60.47;99876.73;4616949;77;20192;-83
2021/04/08 22:33:52;;;;;;;;;;;;;;;12.67;51.38;99875.95;4584847;77;20198;-83
2021/04/08 22:39:54;;;;;;;;;;;;;;;12.07;52.76;99877.36;4585891;77;20266;-83
2021/04/08 22:45:56;;;;;;;;;;;;;;;11.85;53.22;99879.05;4582025;77;20298;-84
2021/04/08 22:51:58;;;;;;;;;;;;;;;11.94;53.10;99884.17;4505341;77;20157;-83
2021/04/08 22:58:05;;;;;;;;;;;;;;;11.85;52.57;99886.33;4534037;78;20299;-83
2021/04/08 23:04:08;;;;;;;;;;;;;;;11.68;53.03;99895.46;4570256;77;20242;-82
2021/04/08 23:10:11;;;;;;;;;;;;;;;11.83;51.91;99893.27;4577770;77;20199;-84
2021/04/08 23:16:13;;;;;;;;;;;;;;;11.77;52.42;99887.42;4545803;77;20560;-83
2021/04/08 23:22:15;;;;;;;;;;;;;;;11.54;53.02;99887.45;4527036;77;20581;-83
2021/04/08 23:28:17;;;;;;;;;;;;;;;11.48;52.43;99891.02;4455326;78;20511;-84
2021/04/08 23:34:19;;;;;;;;;;;;;;;11.18;53.22;99892.93;4463375;77;20566;-83
2021/04/08 23:40:23;;;;;;;;;;;;;;;12.03;49.97;99896.88;4486623;78;20175;-82
2021/04/08 23:46:24;;;;;;;;;;;;;;;11.88;50.76;99898.55;4522739;78;20203;-83
2021/04/08 23:52:27;;;;;;;;;;;;;;;11.66;51.71;99893.48;4446979;78;20175;-82
2021/04/08 23:58:28;;;;;;;;;;;;;;;11.59;51.23;99898.91;4473705;78;20206;-84
